createdAt,value
2018-07-12T00:01:58.674Z,98929.40
2018-07-12T00:04:26.204Z,98934.48
2018-07-12T00:06:53.737Z,98936.63
2018-07-12T00:09:21.244Z,98928.66
2018-07-12T00:11:49.748Z,98929.22
2018-07-12T00:14:17.272Z,98918.96
2018-07-12T00:16:44.723Z,98929.84
2018-07-12T00:19:12.257Z,98925.80
2018-07-12T00:21:39.726Z,98926.04
2018-07-12T00:24:07.300Z,98931.61
2018-07-12T00:26:34.807Z,98929.84
2018-07-12T00:29:02.268Z,98928.35
2018-07-12T00:31:29.744Z,98927.22
2018-07-12T00:33:57.199Z,98925.38
2018-07-12T00:36:24.800Z,98927.23
2018-07-12T00:38:52.399Z,98929.38
2018-07-12T00:41:19.992Z,98929.97
2018-07-12T00:43:47.443Z,98929.48
2018-07-12T00:46:14.961Z,98929.69
2018-07-12T00:48:42.487Z,98926.94
2018-07-12T00:51:10.019Z,98927.11
2018-07-12T00:53:37.503Z,98937.45
2018-07-12T00:56:04.959Z,98943.78
2018-07-12T00:58:32.630Z,98936.56
2018-07-12T01:01:00.261Z,98935.90
2018-07-12T01:03:27.958Z,98932.75
2018-07-12T01:05:55.608Z,98931.26
2018-07-12T01:08:23.292Z,98935.54
2018-07-12T01:10:51.009Z,98938.23
2018-07-12T01:13:18.543Z,98929.58
2018-07-12T01:15:46.116Z,98929.11
2018-07-12T01:18:13.571Z,98938.17
2018-07-12T01:20:41.204Z,98935.69
2018-07-12T01:23:08.835Z,98940.95
2018-07-12T01:25:36.441Z,98938.19
2018-07-12T01:28:04.071Z,98936.41
2018-07-12T01:30:31.672Z,98936.41
2018-07-12T01:32:59.204Z,98937.41
2018-07-12T01:35:26.810Z,98942.18
2018-07-12T01:37:54.426Z,98946.79
2018-07-12T01:40:22.229Z,98947.80
2018-07-12T01:42:49.828Z,98945.95
2018-07-12T01:45:17.396Z,98942.06
2018-07-12T01:47:44.852Z,98941.41
2018-07-12T01:50:12.554Z,98942.08
2018-07-12T01:52:40.139Z,98939.14
2018-07-12T01:55:07.834Z,98932.44
2018-07-12T01:57:35.499Z,98934.73
2018-07-12T02:00:03.094Z,98934.06
2018-07-12T02:02:30.729Z,98936.22
2018-07-12T02:04:58.335Z,98939.02
2018-07-12T02:07:26.061Z,98938.89
2018-07-12T02:09:53.668Z,98938.89
2018-07-12T02:12:21.308Z,98940.16
2018-07-12T02:14:48.992Z,98935.39
2018-07-12T02:17:16.612Z,98935.75
2018-07-12T02:19:44.248Z,98929.88
2018-07-12T02:22:12.037Z,98931.67
2018-07-12T02:24:39.712Z,98938.20
2018-07-12T02:27:07.372Z,98940.50
2018-07-12T02:29:34.911Z,98935.38
2018-07-12T02:32:02.499Z,98937.17
2018-07-12T02:34:30.137Z,98935.69
2018-07-12T02:36:57.743Z,98940.81
2018-07-12T02:39:25.351Z,98940.82
2018-07-12T02:41:52.981Z,98938.41
2018-07-12T02:44:20.617Z,98943.53
2018-07-12T02:46:48.140Z,98939.13
2018-07-12T02:49:16.236Z,98935.66
2018-07-12T02:51:43.873Z,98938.47
2018-07-12T02:54:11.668Z,98939.78
2018-07-12T02:56:39.318Z,98944.91
2018-07-12T02:59:06.995Z,98940.27
2018-07-12T03:01:34.452Z,98938.69
2018-07-12T03:04:02.066Z,98941.45
2018-07-12T03:06:29.614Z,98945.88
2018-07-12T03:08:57.060Z,98944.20
2018-07-12T03:11:24.594Z,98951.73
2018-07-12T03:13:52.312Z,98941.88
2018-07-12T03:16:20.029Z,98941.75
2018-07-12T03:18:47.747Z,98949.11
2018-07-12T03:21:15.195Z,98950.10
2018-07-12T03:23:42.735Z,98945.98
2018-07-12T03:26:10.320Z,98944.98
2018-07-12T03:28:37.964Z,98941.17
2018-07-12T03:31:05.512Z,98944.09
2018-07-12T03:33:33.250Z,98940.34
2018-07-12T03:36:00.792Z,98939.02
2018-07-12T03:38:28.317Z,98942.30
2018-07-12T03:40:55.901Z,98939.97
2018-07-12T03:43:23.629Z,98947.32
2018-07-12T03:45:51.343Z,98949.23
2018-07-12T03:48:18.983Z,98950.20
2018-07-12T03:50:46.883Z,98951.31
2018-07-12T03:53:14.517Z,98956.57
2018-07-12T03:55:42.221Z,98959.20
2018-07-12T03:58:10.012Z,98963.09
2018-07-12T04:00:37.657Z,98961.89
2018-07-12T04:03:05.276Z,98956.59
2018-07-12T04:05:32.913Z,98959.03
2018-07-12T04:08:00.604Z,98960.82
2018-07-12T04:10:28.256Z,98965.70
2018-07-12T04:12:56.039Z,98958.25
2018-07-12T04:15:23.862Z,98958.56
2018-07-12T04:17:51.504Z,98961.36
2018-07-12T04:20:19.133Z,98963.47
2018-07-12T04:22:46.584Z,98957.17
2018-07-12T04:25:14.231Z,98957.28
2018-07-12T04:27:41.872Z,98966.80
2018-07-12T04:30:09.675Z,98961.33
2018-07-12T04:32:37.516Z,98963.72
2018-07-12T04:35:04.973Z,98966.81
2018-07-12T04:37:32.439Z,98961.65
2018-07-12T04:39:59.884Z,98960.92
2018-07-12T04:42:27.400Z,98961.66
2018-07-12T04:44:54.871Z,98964.02
2018-07-12T04:47:22.320Z,98962.14
2018-07-12T04:49:49.844Z,98961.67
2018-07-12T04:52:17.300Z,98953.90
2018-07-12T04:54:44.776Z,98964.55
2018-07-12T04:57:12.305Z,98966.96
2018-07-12T04:59:39.888Z,98965.95
2018-07-12T05:02:07.342Z,98967.01
2018-07-12T05:04:34.852Z,98966.98
2018-07-12T05:07:02.316Z,98967.25
2018-07-12T05:09:29.829Z,98967.70
2018-07-12T05:11:57.362Z,98964.86
2018-07-12T05:14:24.864Z,98970.75
2018-07-12T05:16:52.453Z,98969.98
2018-07-12T05:19:19.961Z,98967.84
2018-07-12T05:21:47.419Z,98970.73
2018-07-12T05:24:14.973Z,98967.53
2018-07-12T05:26:42.437Z,98962.17
2018-07-12T05:29:09.971Z,98974.05
2018-07-12T05:31:37.418Z,98971.30
2018-07-12T05:34:04.948Z,98972.41
2018-07-12T05:37:05.151Z,98971.36
2018-07-12T05:39:34.123Z,98964.22
2018-07-12T05:42:03.165Z,98966.30
2018-07-12T05:44:32.192Z,98972.63
2018-07-12T05:47:01.209Z,98978.59
2018-07-12T05:49:30.225Z,98975.98
2018-07-12T05:51:59.241Z,98976.02
2018-07-12T05:54:28.505Z,98975.91
2018-07-12T05:56:57.578Z,98974.61
2018-07-12T05:59:26.593Z,98974.30
2018-07-12T06:02:06.504Z,98972.48
2018-07-12T06:04:35.541Z,98976.98
2018-07-12T06:07:04.623Z,98975.13
2018-07-12T06:09:33.646Z,98974.98
2018-07-12T06:12:02.612Z,98977.11
2018-07-12T06:14:31.728Z,98974.80
2018-07-12T06:17:00.816Z,98984.55
2018-07-12T06:19:29.845Z,98978.23
2018-07-12T06:21:58.855Z,98978.78
2018-07-12T06:24:27.891Z,98976.28
2018-07-12T06:26:57.813Z,98972.95
2018-07-12T06:29:26.811Z,98965.91
2018-07-12T06:31:55.876Z,98970.80
2018-07-12T06:34:24.922Z,98966.19
2018-07-12T06:36:53.912Z,98963.66
2018-07-12T06:39:23.189Z,98965.13
2018-07-12T06:41:52.370Z,98965.73
2018-07-12T06:44:21.409Z,98961.89
2018-07-12T06:46:50.377Z,98967.58
2018-07-12T06:49:19.442Z,98965.05
2018-07-12T06:51:48.521Z,98965.16
2018-07-12T06:54:17.586Z,98963.23
2018-07-12T06:56:46.626Z,98965.47
2018-07-12T06:59:15.777Z,98964.25
2018-07-12T07:01:44.744Z,98960.86
2018-07-12T07:04:13.760Z,98957.12
2018-07-12T07:06:42.815Z,98959.39
2018-07-12T07:09:12.473Z,98958.99
2018-07-12T07:11:41.708Z,98955.23
2018-07-12T07:14:10.769Z,98960.92
2018-07-12T07:16:39.746Z,98961.31
2018-07-12T07:19:08.749Z,98960.12
2018-07-12T07:21:37.732Z,98964.29
2018-07-12T07:24:06.757Z,98960.53
2018-07-12T07:26:35.859Z,98963.75
2018-07-12T07:29:04.945Z,98963.47
2018-07-12T07:31:34.001Z,98953.24
2018-07-12T07:34:03.049Z,98962.16
2018-07-12T07:36:32.047Z,98959.34
2018-07-12T07:39:01.037Z,98956.27
2018-07-12T07:41:30.009Z,98957.05
2018-07-12T07:43:59.096Z,98957.06
2018-07-12T07:46:28.157Z,98955.38
2018-07-12T07:48:57.363Z,98953.91
2018-07-12T07:51:26.388Z,98956.72
2018-07-12T07:53:55.344Z,98962.39
2018-07-12T07:56:24.315Z,98961.02
2018-07-12T07:58:53.269Z,98958.84
2018-07-12T08:01:22.248Z,98961.11
2018-07-12T08:03:51.215Z,98966.98
2018-07-12T08:06:20.376Z,98961.65
2018-07-12T08:08:49.335Z,98966.95
2018-07-12T08:11:18.509Z,98966.91
2018-07-12T08:13:47.493Z,98970.65
2018-07-12T08:16:16.591Z,98972.31
2018-07-12T08:18:45.624Z,98972.16
2018-07-12T08:21:16.032Z,98971.72
2018-07-12T08:23:46.212Z,98974.39
2018-07-12T08:26:15.188Z,98973.20
2018-07-12T08:28:44.255Z,98971.14
2018-07-12T08:31:13.789Z,98969.09
2018-07-12T08:33:44.948Z,98975.01
2018-07-12T08:36:14.594Z,98977.61
2018-07-12T08:38:43.988Z,98968.86
2018-07-12T08:41:13.165Z,98969.69
2018-07-12T08:43:42.188Z,98966.72
2018-07-12T08:46:11.218Z,98970.78
2018-07-12T08:48:40.247Z,98975.62
2018-07-12T08:51:09.333Z,98975.47
2018-07-12T08:53:38.319Z,98974.19
2018-07-12T08:56:07.304Z,98979.89
2018-07-12T08:58:36.365Z,98977.81
2018-07-12T09:01:05.349Z,98977.31
2018-07-12T09:03:34.420Z,98978.37
2018-07-12T09:06:03.668Z,98975.92
2018-07-12T09:08:32.961Z,98980.19
2018-07-12T09:11:02.109Z,98981.53
2018-07-12T09:13:31.407Z,98975.62
2018-07-12T09:16:00.629Z,98981.86
2018-07-12T09:18:29.631Z,98982.39
2018-07-12T09:20:58.695Z,98985.48
2018-07-12T09:23:27.937Z,98983.84
2018-07-12T09:25:56.977Z,98974.23
2018-07-12T09:28:26.055Z,98985.23
2018-07-12T09:30:55.039Z,98981.45
2018-07-12T09:33:24.048Z,98982.84
2018-07-12T09:35:53.065Z,98981.25
2018-07-12T09:38:46.156Z,98977.81
2018-07-12T09:41:15.148Z,98974.59
2018-07-12T09:43:45.175Z,98974.05
2018-07-12T09:46:14.147Z,98975.13
2018-07-12T09:48:46.539Z,98976.51
2018-07-12T09:51:16.041Z,98976.22
2018-07-12T09:53:46.015Z,98964.92
2018-07-12T09:56:15.192Z,98968.41
2018-07-12T09:58:44.275Z,98966.27
2018-07-12T10:01:18.377Z,98961.98
2018-07-12T10:03:48.836Z,98960.62
2018-07-12T10:06:22.921Z,98972.73
2018-07-12T10:09:00.371Z,98961.46
2018-07-12T10:11:34.589Z,98960.62
2018-07-12T10:14:08.516Z,98960.09
2018-07-12T10:16:42.667Z,98959.00
2018-07-12T10:19:11.656Z,98957.41
2018-07-12T10:21:40.640Z,98960.65
2018-07-12T10:24:09.604Z,98958.75
2018-07-12T10:26:38.708Z,98953.11
2018-07-12T10:29:07.816Z,98956.89
2018-07-12T10:31:36.825Z,98947.73
2018-07-12T10:34:06.076Z,98957.41
2018-07-12T10:36:35.332Z,98956.05
2018-07-12T10:39:05.109Z,98959.28
2018-07-12T10:41:34.076Z,98952.03
2018-07-12T10:44:03.112Z,98952.84
2018-07-12T10:46:32.156Z,98948.82
2018-07-12T10:49:01.289Z,98957.37
2018-07-12T10:51:30.784Z,98951.20
2018-07-12T10:54:00.107Z,98960.07
2018-07-12T10:56:29.238Z,98954.70
2018-07-12T10:58:59.481Z,98945.84
2018-07-12T11:01:28.586Z,98945.30
2018-07-12T11:03:57.600Z,98942.35
2018-07-12T11:06:26.912Z,98939.67
2018-07-12T11:08:56.167Z,98949.20
2018-07-12T11:11:25.401Z,98941.97
2018-07-12T11:13:55.128Z,98939.84
2018-07-12T11:16:24.166Z,98940.93
2018-07-12T11:18:53.138Z,98937.91
2018-07-12T11:21:23.685Z,98934.89
2018-07-12T11:23:52.724Z,98940.85
2018-07-12T11:26:21.678Z,98936.09
2018-07-12T11:28:50.676Z,98927.04
2018-07-12T11:31:19.726Z,98929.16
2018-07-12T11:33:50.240Z,98929.70
2018-07-12T11:36:19.582Z,98933.47
2018-07-12T11:38:48.960Z,98935.48
2018-07-12T11:41:18.216Z,98929.31
2018-07-12T11:43:47.570Z,98933.63
2018-07-12T11:46:17.031Z,98930.20
2018-07-12T11:48:46.569Z,98933.70
2018-07-12T11:51:15.760Z,98927.28
2018-07-12T11:53:45.141Z,98919.22
2018-07-12T11:56:14.481Z,98924.08
2018-07-12T11:58:43.780Z,98920.81
2018-07-12T12:01:13.165Z,98913.55
2018-07-12T12:03:42.525Z,98921.02
2018-07-12T12:06:11.872Z,98917.14
2018-07-12T12:08:41.398Z,98912.50
2018-07-12T12:11:10.363Z,98908.50
2018-07-12T12:13:39.352Z,98910.65
2018-07-12T12:16:08.695Z,98912.59
2018-07-12T12:18:38.139Z,98903.22
2018-07-12T12:21:07.493Z,98897.13
2018-07-12T12:23:36.760Z,98899.53
2018-07-12T12:26:06.104Z,98903.04
2018-07-12T12:28:35.380Z,98900.12
2018-07-12T12:31:04.722Z,98895.02
2018-07-12T12:33:34.192Z,98896.64
2018-07-12T12:36:03.606Z,98895.53
2018-07-12T12:38:33.117Z,98896.55
2018-07-12T12:41:02.342Z,98892.44
2018-07-12T12:43:31.358Z,98894.08
2018-07-12T12:46:00.325Z,98889.06
2018-07-12T12:48:29.336Z,98891.78
2018-07-12T12:50:58.642Z,98888.56
2018-07-12T12:53:27.922Z,98889.11
2018-07-12T12:55:57.085Z,98881.59
2018-07-12T12:58:26.065Z,98886.44
2018-07-12T13:00:55.497Z,98878.09
2018-07-12T13:03:24.831Z,98884.78
2018-07-12T13:05:54.151Z,98872.19
2018-07-12T13:08:23.193Z,98873.56
2018-07-12T13:10:52.247Z,98868.43
2018-07-12T13:13:21.588Z,98862.53
2018-07-12T13:15:50.855Z,98866.03
2018-07-12T13:18:20.105Z,98864.69
2018-07-12T13:20:49.084Z,98857.70
2018-07-12T13:23:18.066Z,98863.84
2018-07-12T13:25:47.125Z,98859.78
2018-07-12T13:28:16.281Z,98854.95
2018-07-12T13:30:45.336Z,98855.50
2018-07-12T13:33:14.363Z,98855.50
2018-07-12T13:35:43.358Z,98858.75
2018-07-12T13:38:12.468Z,98853.62
2018-07-12T13:40:41.716Z,98856.31
2018-07-12T13:43:10.960Z,98850.94
2018-07-12T13:45:40.009Z,98847.44
2018-07-12T13:48:08.972Z,98851.15
2018-07-12T13:50:38.128Z,98842.22
2018-07-12T13:53:07.965Z,98850.50
2018-07-12T13:55:37.116Z,98845.71
2018-07-12T13:58:06.554Z,98849.33
2018-07-12T14:00:35.780Z,98851.75
2018-07-12T14:03:04.872Z,98843.40
2018-07-12T14:05:34.287Z,98841.28
2018-07-12T14:08:03.272Z,98843.70
2018-07-12T14:10:32.589Z,98844.47
2018-07-12T14:13:01.889Z,98843.42
2018-07-12T14:15:31.243Z,98847.43
2018-07-12T14:18:00.475Z,98843.13
2018-07-12T14:20:29.779Z,98838.03
2018-07-12T14:22:58.986Z,98839.11
2018-07-12T14:25:28.225Z,98840.19
2018-07-12T14:27:57.584Z,98842.61
2018-07-12T14:30:26.929Z,98846.12
2018-07-12T14:32:56.206Z,98835.93
2018-07-12T14:35:25.685Z,98834.56
2018-07-12T14:37:55.039Z,98831.88
2018-07-12T14:40:24.379Z,98823.04
2018-07-12T14:42:53.589Z,98830.83
2018-07-12T14:45:22.833Z,98826.78
2018-07-12T14:47:52.184Z,98827.33
2018-07-12T14:50:21.529Z,98824.92
2018-07-12T14:52:53.230Z,98828.70
2018-07-12T14:55:22.501Z,98826.55
2018-07-12T14:57:51.933Z,98824.67
2018-07-12T15:00:21.265Z,98821.96
2018-07-12T15:02:50.606Z,98824.92
2018-07-12T15:05:20.097Z,98826.25
2018-07-12T15:07:49.236Z,98823.59
2018-07-12T15:10:18.479Z,98820.09
2018-07-12T15:12:47.931Z,98819.29
2018-07-12T15:15:17.145Z,98821.42
2018-07-12T15:17:46.380Z,98820.36
2018-07-12T15:20:15.366Z,98821.70
2018-07-12T15:22:44.637Z,98818.73
2018-07-12T15:25:13.936Z,98816.06
2018-07-12T15:27:43.179Z,98814.98
2018-07-12T15:30:12.460Z,98812.82
2018-07-12T15:32:41.812Z,98819.01
2018-07-12T15:35:11.173Z,98814.18
2018-07-12T15:37:40.363Z,98815.00
2018-07-12T15:40:10.101Z,98815.52
2018-07-12T15:42:39.115Z,98820.64
2018-07-12T15:45:08.304Z,98821.69
2018-07-12T15:47:37.658Z,98821.70
2018-07-12T15:50:06.770Z,98816.85
2018-07-12T15:52:35.886Z,98811.50
2018-07-12T15:55:05.040Z,98827.59
2018-07-12T15:57:34.068Z,98817.10
2018-07-12T16:00:03.038Z,98816.05
2018-07-12T16:02:32.102Z,98823.25
2018-07-12T16:05:01.160Z,98824.56
2018-07-12T16:07:30.244Z,98832.03
2018-07-12T16:09:59.625Z,98832.58
2018-07-12T16:12:28.983Z,98822.88
2018-07-12T16:14:58.319Z,98828.69
2018-07-12T16:17:27.304Z,98828.41
2018-07-12T16:19:56.862Z,98829.72
2018-07-12T16:22:25.943Z,98827.53
2018-07-12T16:24:55.373Z,98829.07
2018-07-12T16:27:24.661Z,98824.98
2018-07-12T16:29:53.808Z,98820.63
2018-07-12T16:32:22.977Z,98824.05
2018-07-12T16:34:52.337Z,98826.95
2018-07-12T16:37:21.413Z,98828.94
2018-07-12T16:39:50.712Z,98826.67
2018-07-12T16:42:20.080Z,98831.27
2018-07-12T16:44:49.399Z,98839.23
2018-07-12T16:47:18.628Z,98829.05
2018-07-12T16:49:47.874Z,98837.34
2018-07-12T16:52:17.168Z,98832.30
2018-07-12T16:54:46.169Z,98833.84
2018-07-12T16:57:15.739Z,98830.41
2018-07-12T16:59:45.106Z,98831.71
2018-07-12T17:02:14.299Z,98824.54
2018-07-12T17:04:43.478Z,98835.02
2018-07-12T17:07:12.712Z,98826.28
2018-07-12T17:09:41.942Z,98826.58
2018-07-12T17:12:11.171Z,98835.24
2018-07-12T17:14:40.389Z,98836.75
2018-07-12T17:17:09.735Z,98838.34
2018-07-12T17:19:39.129Z,98839.56
2018-07-12T17:22:08.956Z,98841.72
2018-07-12T17:24:38.196Z,98842.26
2018-07-12T17:27:07.414Z,98838.19
2018-07-12T17:29:36.701Z,98838.08
2018-07-12T17:32:06.100Z,98834.27
2018-07-12T17:34:35.132Z,98836.58
2018-07-12T17:37:04.229Z,98829.80
2018-07-12T17:39:33.527Z,98835.33
2018-07-12T17:42:02.787Z,98837.30
2018-07-12T17:44:31.967Z,98835.84
2018-07-12T17:47:01.294Z,98840.55
2018-07-12T17:49:30.528Z,98840.97
2018-07-12T17:51:59.749Z,98832.78
2018-07-12T17:54:29.033Z,98839.62
2018-07-12T17:56:58.358Z,98836.33
2018-07-12T17:59:27.743Z,98843.91
2018-07-12T18:01:57.097Z,98850.37
2018-07-12T18:04:26.089Z,98844.74
2018-07-12T18:06:55.445Z,98847.09
2018-07-12T18:09:24.854Z,98850.97
2018-07-12T18:11:54.072Z,98861.88
2018-07-12T18:14:23.247Z,98855.69
2018-07-12T18:16:52.396Z,98863.84
2018-07-12T18:19:21.608Z,98857.53
2018-07-12T18:21:51.022Z,98859.11
2018-07-12T18:24:20.403Z,98857.81
2018-07-12T18:26:49.463Z,98863.05
2018-07-12T18:29:18.632Z,98867.20
2018-07-12T18:31:48.023Z,98865.66
2018-07-12T18:34:17.263Z,98868.23
2018-07-12T18:36:46.535Z,98874.45
2018-07-12T18:39:15.962Z,98866.64
2018-07-12T18:41:44.921Z,98867.22
2018-07-12T18:44:14.071Z,98872.38
2018-07-12T18:46:43.351Z,98876.44
2018-07-12T18:49:12.430Z,98878.47
2018-07-12T18:51:41.583Z,98872.94
2018-07-12T18:54:10.631Z,98887.31
2018-07-12T18:56:39.708Z,98891.42
2018-07-12T18:59:09.148Z,98887.81
2018-07-12T19:01:38.436Z,98894.29
2018-07-12T19:04:07.648Z,98892.89
2018-07-12T19:06:36.920Z,98895.23
2018-07-12T19:09:08.214Z,98893.33
2018-07-12T19:11:37.427Z,98890.90
2018-07-12T19:14:06.809Z,98897.88
2018-07-12T19:16:36.116Z,98893.61
2018-07-12T19:19:05.508Z,98903.33
2018-07-12T19:21:34.704Z,98896.53
2018-07-12T19:24:03.925Z,98902.39
2018-07-12T19:26:33.252Z,98903.45
2018-07-12T19:29:02.472Z,98904.36
2018-07-12T19:31:31.711Z,98902.95
2018-07-12T19:34:00.928Z,98902.42
2018-07-12T19:36:30.215Z,98905.44
2018-07-12T19:38:59.574Z,98911.28
2018-07-12T19:41:28.953Z,98909.88
2018-07-12T19:43:58.431Z,98914.07
2018-07-12T19:46:27.505Z,98913.17
2018-07-12T19:48:56.848Z,98914.72
2018-07-12T19:51:26.155Z,98914.14
2018-07-12T19:53:55.486Z,98919.64
2018-07-12T19:56:24.533Z,98915.18
2018-07-12T19:58:53.819Z,98916.64
2018-07-12T20:01:23.204Z,98911.55
2018-07-12T20:03:52.578Z,98914.70
2018-07-12T20:06:21.909Z,98921.64
2018-07-12T20:08:51.251Z,98915.97
2018-07-12T20:11:20.650Z,98920.23
2018-07-12T20:13:50.003Z,98917.93
2018-07-12T20:16:19.224Z,98920.79
2018-07-12T20:18:48.496Z,98929.13
2018-07-12T20:21:18.041Z,98925.36
2018-07-12T20:23:47.716Z,98934.21
2018-07-12T20:26:16.993Z,98931.27
2018-07-12T20:28:46.284Z,98932.61
2018-07-12T20:31:15.762Z,98932.53
2018-07-12T20:33:44.897Z,98935.88
2018-07-12T20:36:14.209Z,98933.46
2018-07-12T20:38:43.608Z,98933.39
2018-07-12T20:41:13.029Z,98930.23
2018-07-12T20:43:42.283Z,98939.30
2018-07-12T20:46:11.685Z,98933.89
2018-07-12T20:48:40.988Z,98939.39
2018-07-12T20:51:10.326Z,98943.36
2018-07-12T20:53:39.555Z,98938.89
2018-07-12T20:56:08.824Z,98943.58
2018-07-12T20:58:37.848Z,98942.55
2018-07-12T21:01:07.252Z,98954.95
2018-07-12T21:03:36.733Z,98949.70
2018-07-12T21:06:06.020Z,98941.76
2018-07-12T21:08:35.393Z,98945.31
2018-07-12T21:11:04.723Z,98947.55
2018-07-12T21:13:34.048Z,98943.78
2018-07-12T21:16:03.367Z,98944.09
2018-07-12T21:18:32.707Z,98948.56
2018-07-12T21:21:02.020Z,98946.54
2018-07-12T21:23:31.301Z,98945.62
2018-07-12T21:26:00.507Z,98945.22
2018-07-12T21:28:29.848Z,98937.28
2018-07-12T21:30:59.044Z,98940.13
2018-07-12T21:33:28.335Z,98941.66
2018-07-12T21:35:57.435Z,98946.83
2018-07-12T21:38:26.420Z,98941.94
2018-07-12T21:40:55.719Z,98936.75
2018-07-12T21:43:25.003Z,98938.06
2018-07-12T21:45:54.357Z,98931.95
2018-07-12T21:48:23.689Z,98939.39
2018-07-12T21:50:52.880Z,98937.56
2018-07-12T21:53:21.938Z,98932.89
2018-07-12T21:55:51.028Z,98933.39
2018-07-12T21:58:20.011Z,98936.03
2018-07-12T22:00:49.333Z,98941.77
2018-07-12T22:03:18.764Z,98936.48
2018-07-12T22:05:47.724Z,98937.09
2018-07-12T22:08:19.384Z,98929.36
2018-07-12T22:10:50.008Z,98928.14
2018-07-12T22:13:19.973Z,98927.23
2018-07-12T22:15:48.952Z,98926.50
2018-07-12T22:18:18.443Z,98927.43
2018-07-12T22:20:47.757Z,98930.45
2018-07-12T22:23:17.112Z,98921.19
2018-07-12T22:25:46.470Z,98913.33
2018-07-12T22:28:15.607Z,98916.70
2018-07-12T22:30:45.010Z,98915.38
2018-07-12T22:33:14.309Z,98912.01
2018-07-12T22:35:43.571Z,98907.14
2018-07-12T22:38:12.976Z,98904.70
2018-07-12T22:40:42.232Z,98904.91
2018-07-12T22:43:11.464Z,98908.77
2018-07-12T22:45:40.733Z,98902.17
2018-07-12T22:48:10.226Z,98896.86
2018-07-12T22:50:39.490Z,98898.09
2018-07-12T22:53:08.836Z,98902.44
2018-07-12T22:55:38.170Z,98903.56
2018-07-12T22:58:07.481Z,98904.06
2018-07-12T23:00:36.789Z,98905.59
2018-07-12T23:03:06.400Z,98907.80
2018-07-12T23:05:35.793Z,98908.63
2018-07-12T23:08:04.988Z,98908.83
2018-07-12T23:10:34.215Z,98902.00
2018-07-12T23:13:03.452Z,98906.36
2018-07-12T23:15:32.657Z,98900.45
2018-07-12T23:18:01.779Z,98899.03
2018-07-12T23:20:31.008Z,98897.81
2018-07-12T23:23:00.402Z,98901.67
2018-07-12T23:25:29.851Z,98903.48
2018-07-12T23:27:59.182Z,98902.86
2018-07-12T23:30:28.512Z,98904.28
2018-07-12T23:32:57.882Z,98895.11
2018-07-12T23:35:27.160Z,98906.66
2018-07-12T23:37:56.467Z,98906.00
2018-07-12T23:40:25.802Z,98906.09
2018-07-12T23:42:55.019Z,98912.46
2018-07-12T23:45:24.235Z,98909.13
2018-07-12T23:47:53.364Z,98904.55
2018-07-12T23:50:22.683Z,98907.18
2018-07-12T23:52:51.859Z,98903.91
2018-07-12T23:55:21.077Z,98906.48
2018-07-12T23:57:50.339Z,98904.14
